createdAt,value
2019-02-19T00:07:28.921Z,244.83
2019-02-19T00:17:30.413Z,220.43
2019-02-19T00:27:32.838Z,188.57
2019-02-19T00:37:34.253Z,202.63
2019-02-19T00:47:35.689Z,195.63
2019-02-19T00:57:37.150Z,303.83
2019-02-19T01:07:38.653Z,302.00
2019-02-19T01:17:40.114Z,250.43
2019-02-19T01:27:42.404Z,369.20
2019-02-19T01:37:43.700Z,265.20
2019-02-19T01:47:45.139Z,239.80
2019-02-19T01:57:46.596Z,203.97
2019-02-19T02:07:48.050Z,223.70
2019-02-19T02:17:49.576Z,245.83
2019-02-19T02:27:52.969Z,241.20
2019-02-19T02:37:54.386Z,252.93
2019-02-19T02:47:55.805Z,287.50
2019-02-19T02:57:57.252Z,155.00
2019-02-19T03:08:00.500Z,122.17
2019-02-19T03:18:02.097Z,84.53
2019-02-19T03:28:04.526Z,141.40
2019-02-19T03:38:06.045Z,106.47
2019-02-19T03:48:07.592Z,126.90
2019-02-19T03:58:09.046Z,185.93
2019-02-19T04:08:10.484Z,168.90
2019-02-19T04:18:12.066Z,150.03
2019-02-19T04:28:15.361Z,152.60
2019-02-19T04:38:16.812Z,176.97
2019-02-19T04:48:18.256Z,160.17
2019-02-19T04:58:20.057Z,180.70
2019-02-19T05:08:21.502Z,161.60
2019-02-19T05:18:23.085Z,155.90
2019-02-19T05:28:25.665Z,200.57
2019-02-19T05:38:27.037Z,170.63
2019-02-19T05:48:28.468Z,152.13
2019-02-19T05:58:29.824Z,155.23
2019-02-19T06:08:31.166Z,218.57
2019-02-19T06:18:32.544Z,214.10
2019-02-19T06:28:35.064Z,145.63
2019-02-19T06:38:36.469Z,62.83
2019-02-19T06:48:37.789Z,34.10
2019-02-19T06:58:39.436Z,91.80
2019-02-19T07:08:40.872Z,360.30
2019-02-19T07:18:42.348Z,320.63
2019-02-19T07:28:45.604Z,141.07
2019-02-19T07:38:46.972Z,122.47
2019-02-19T07:48:48.293Z,120.30
2019-02-19T07:58:49.781Z,96.87
2019-02-19T08:08:52.827Z,105.40
2019-02-19T08:18:54.262Z,85.03
2019-02-19T08:39:44.061Z,77.90
2019-02-19T08:49:45.360Z,56.77
2019-02-19T08:59:46.797Z,54.90
2019-02-19T09:09:49.015Z,45.33
2019-02-19T09:19:50.595Z,46.85
2019-02-19T09:29:52.120Z,51.15
2019-02-19T09:50:41.680Z,41.53
2019-02-19T10:00:43.012Z,42.98
2019-02-19T10:10:44.357Z,45.03
2019-02-19T10:20:45.750Z,38.15
2019-02-19T10:30:47.280Z,92.35
2019-02-19T10:40:48.638Z,40.78
2019-02-19T10:50:51.829Z,183.50
2019-02-19T11:00:53.333Z,103.23
2019-02-19T11:10:54.768Z,156.53
2019-02-19T11:20:56.250Z,146.23
2019-02-19T11:30:57.822Z,89.80
2019-02-19T11:40:59.232Z,69.53
2019-02-19T11:51:01.741Z,56.07
2019-02-19T12:01:04.261Z,55.97
2019-02-19T12:11:05.698Z,47.30
2019-02-19T12:21:07.260Z,52.47
2019-02-19T12:31:08.696Z,48.43
2019-02-19T12:41:10.174Z,45.37
2019-02-19T12:51:12.529Z,41.73
2019-02-19T13:01:13.952Z,50.43
2019-02-19T13:11:15.396Z,43.13
2019-02-19T13:21:16.881Z,38.50
2019-02-19T13:31:18.426Z,31.50
2019-02-19T13:41:19.848Z,41.33
2019-02-19T13:51:23.169Z,42.17
2019-02-19T14:01:24.664Z,36.63
2019-02-19T14:11:26.213Z,31.00
2019-02-19T14:21:46.273Z,28.83
2019-02-19T14:32:06.353Z,105.30
2019-02-19T14:42:09.717Z,53.70
2019-02-19T14:52:30.821Z,35.03
2019-02-19T15:02:39.866Z,51.33
2019-02-19T15:12:52.297Z,39.90
2019-02-19T15:23:01.930Z,38.43
2019-02-19T15:33:06.846Z,61.20
2019-02-19T15:43:27.132Z,93.00
2019-02-19T15:53:31.917Z,61.67
2019-02-19T16:03:35.333Z,50.80
2019-02-19T16:13:46.279Z,55.40
2019-02-19T16:23:55.833Z,52.60
2019-02-19T16:34:02.969Z,46.17
2019-02-19T16:44:24.733Z,57.97
2019-02-19T16:54:44.529Z,55.43
2019-02-19T17:05:04.853Z,55.97
2019-02-19T17:15:26.760Z,65.47
2019-02-19T17:25:30.065Z,55.93
2019-02-19T17:35:48.558Z,71.30
2019-02-19T17:46:07.276Z,62.40
2019-02-19T17:56:17.741Z,68.03
2019-02-19T18:06:33.418Z,53.67
2019-02-19T18:16:36.764Z,63.97
2019-02-19T18:26:38.069Z,59.47
2019-02-19T18:36:39.557Z,67.90
2019-02-19T18:46:41.129Z,60.53
2019-02-19T18:56:43.617Z,75.90
2019-02-19T19:06:45.128Z,77.00
2019-02-19T19:16:46.689Z,121.33
2019-02-19T19:26:48.174Z,74.07
2019-02-19T19:36:50.162Z,84.07
2019-02-19T19:46:51.662Z,66.23
2019-02-19T19:56:54.650Z,95.27
2019-02-19T20:06:56.089Z,58.60
2019-02-19T20:16:57.536Z,65.83
2019-02-19T20:26:59.356Z,57.87
2019-02-19T20:37:01.205Z,95.90
2019-02-19T20:47:02.891Z,117.67
2019-02-19T20:57:06.932Z,122.67
2019-02-19T21:07:08.437Z,159.53
2019-02-19T21:17:10.052Z,152.63
2019-02-19T21:27:11.568Z,113.37
2019-02-19T21:37:13.137Z,145.90
2019-02-19T21:47:14.620Z,154.93
2019-02-19T21:57:17.504Z,174.20
2019-02-19T22:07:19.081Z,242.83
2019-02-19T22:17:20.585Z,130.17
2019-02-19T22:27:21.985Z,122.27
2019-02-19T22:37:23.524Z,125.07
2019-02-19T22:47:24.961Z,124.73
2019-02-19T22:57:27.385Z,112.60
2019-02-19T23:07:28.849Z,111.13
2019-02-19T23:17:31.153Z,111.43
2019-02-19T23:27:32.543Z,112.97
2019-02-19T23:37:34.102Z,110.40
2019-02-19T23:47:35.520Z,108.40
2019-02-19T23:57:37.937Z,103.10
